Stena Suede — ZCEF5 — position and weather

sailwx.info

Track history (hours):
 
Tides and Currents Weather Stations Pressure Air Temp Water Temp Dewpoint Dewpoint Depression Visibility Wind Speed Wind Dir Waves Ship Positions

Stena Suede

Last reported at 2015-Mar-24 16:24 UTC. Time now 2015-Mar-27 05:20 UTC.
Position N 47°07' W 002°26'.

Length 274 m; draft 15 m.

Type: Tanker. MMSI: 310622000.

Date/timePositionNaut miles runAvg speedWind from/ knotsBaromVisibWave heightAir tempDewpointWater temp
2015-Mar-24 16:24N 47°07' W 002°26'0 0.0
2015-Mar-24 06:30N 47°06' W 002°26'0 0.1
2015-Mar-24 04:30N 47°07' W 002°26'0 0.0
2015-Mar-24 02:09N 47°07' W 002°26'0 0.2
2015-Mar-24 00:33N 47°06' W 002°26'0 0.0
2015-Mar-23 23:27N 47°06' W 002°26'0 0.0
2015-Mar-23 22:06N 47°06' W 002°26'0 0.0
2015-Mar-23 19:06N 47°06' W 002°26'0 0.1
2015-Mar-23 17:12N 47°07' W 002°26'0 0.0
2015-Mar-23 08:33N 47°06' W 002°26'0 0.0
2015-Mar-23 07:30N 47°06' W 002°26'0 0.0
2015-Mar-23 06:33N 47°06' W 002°26'0 0.0
2015-Mar-22 15:11N 47°07' W 002°26'0 0.0
2015-Mar-21 09:14N 47°06' W 002°26'0 0.1
2015-Mar-21 08:21N 47°06' W 002°26'0 0.0
2015-Mar-20 21:05N 47°06' W 002°26'  
2015-Mar-16 06:25N 30°34' W 014°05'1213.2
2015-Mar-16 05:33N 30°23' W 014°09'1313.1
2015-Mar-16 04:33N 30°10' W 014°13'1312.9
2015-Mar-16 03:31N 29°58' W 014°18'1212.7
2015-Mar-16 02:33N 29°46' W 014°21'1312.5
2015-Mar-16 01:30N 29°33' W 014°25'2812.9
2015-Mar-15 23:18N 29°06' W 014°34'1013.1
2015-Mar-15 22:33N 28°57' W 014°37'1312.8
2015-Mar-15 21:33N 28°44' W 014°41'1312.7
2015-Mar-15 20:33N 28°32' W 014°45'1312.8
2015-Mar-15 19:33N 28°20' W 014°49'1312.9
2015-Mar-15 18:33N 28°08' W 014°54'1312.9
2015-Mar-15 17:33N 27°56' W 014°60'1312.6
2015-Mar-15 16:33N 27°44' W 015°05'1312.6
2015-Mar-15 15:33N 27°33' W 015°11'  
Track history (hours):
 
Tides and Currents Weather Stations Pressure Air Temp Water Temp Dewpoint Dewpoint Depression Visibility Wind Speed Wind Dir Waves Ship Positions

Stena Suede

Last reported at 2015-Mar-24 16:24 UTC. Time now 2015-Mar-27 05:20 UTC.
Position N 47°07' W 002°26'.

Length 274 m; draft 15 m.

Type: Tanker. MMSI: 310622000.

Date/timePositionNaut miles runAvg speedWind from/ knotsBaromVisibWave heightAir tempDewpointWater temp
2015-Mar-24 16:24N 47°07' W 002°26'0 0.0
2015-Mar-24 06:30N 47°06' W 002°26'0 0.1
2015-Mar-24 04:30N 47°07' W 002°26'0 0.0
2015-Mar-24 02:09N 47°07' W 002°26'0 0.2
2015-Mar-24 00:33N 47°06' W 002°26'0 0.0
2015-Mar-23 23:27N 47°06' W 002°26'0 0.0
2015-Mar-23 22:06N 47°06' W 002°26'0 0.0
2015-Mar-23 19:06N 47°06' W 002°26'0 0.1
2015-Mar-23 17:12N 47°07' W 002°26'0 0.0
2015-Mar-23 08:33N 47°06' W 002°26'0 0.0
2015-Mar-23 07:30N 47°06' W 002°26'0 0.0
2015-Mar-23 06:33N 47°06' W 002°26'0 0.0
2015-Mar-22 15:11N 47°07' W 002°26'0 0.0
2015-Mar-21 09:14N 47°06' W 002°26'0 0.1
2015-Mar-21 08:21N 47°06' W 002°26'0 0.0
2015-Mar-20 21:05N 47°06' W 002°26'  
2015-Mar-16 06:25N 30°34' W 014°05'1213.2
2015-Mar-16 05:33N 30°23' W 014°09'1313.1
2015-Mar-16 04:33N 30°10' W 014°13'1312.9
2015-Mar-16 03:31N 29°58' W 014°18'1212.7
2015-Mar-16 02:33N 29°46' W 014°21'1312.5
2015-Mar-16 01:30N 29°33' W 014°25'2812.9
2015-Mar-15 23:18N 29°06' W 014°34'1013.1
2015-Mar-15 22:33N 28°57' W 014°37'1312.8
2015-Mar-15 21:33N 28°44' W 014°41'1312.7
2015-Mar-15 20:33N 28°32' W 014°45'1312.8
2015-Mar-15 19:33N 28°20' W 014°49'1312.9
2015-Mar-15 18:33N 28°08' W 014°54'1312.9
2015-Mar-15 17:33N 27°56' W 014°60'1312.6
2015-Mar-15 16:33N 27°44' W 015°05'1312.6
2015-Mar-15 15:33N 27°33' W 015°11'  

Dump ship's entire track history